createdAt,value
2019-02-23T00:01:17.115Z,155.00
2019-02-23T00:03:47.062Z,152.30
2019-02-23T00:06:17.034Z,152.37
2019-02-23T00:08:47.054Z,149.17
2019-02-23T00:11:17.003Z,147.93
2019-02-23T00:13:47.074Z,147.03
2019-02-23T00:16:17.082Z,141.27
2019-02-23T00:18:47.065Z,142.20
2019-02-23T00:21:17.141Z,140.83
2019-02-23T00:23:47.039Z,138.57
2019-02-23T00:26:17.042Z,139.87
2019-02-23T00:28:47.032Z,136.17
2019-02-23T00:31:17.031Z,134.63
2019-02-23T00:33:46.937Z,135.43
2019-02-23T00:36:17.881Z,131.43
2019-02-23T00:38:47.894Z,129.83
2019-02-23T00:41:17.818Z,128.57
2019-02-23T00:43:47.870Z,129.23
2019-02-23T00:46:17.773Z,124.83
2019-02-23T00:48:47.723Z,126.03
2019-02-23T00:51:17.819Z,121.63
2019-02-23T00:53:47.781Z,122.30
2019-02-23T00:56:17.818Z,120.50
2019-02-23T00:58:47.842Z,120.83
2019-02-23T01:01:17.741Z,118.33
2019-02-23T01:03:47.732Z,114.90
2019-02-23T01:06:17.750Z,115.93
2019-02-23T01:08:47.743Z,114.97
2019-02-23T01:11:17.761Z,112.70
2019-02-23T01:13:48.704Z,108.60
2019-02-23T01:16:18.646Z,108.47
2019-02-23T01:18:48.653Z,109.10
2019-02-23T01:21:18.602Z,108.57
2019-02-23T01:23:48.592Z,108.83
2019-02-23T01:26:18.546Z,104.13
2019-02-23T01:28:48.509Z,100.23
2019-02-23T01:31:18.416Z,101.03
2019-02-23T01:33:48.461Z,100.13
2019-02-23T01:36:18.441Z,101.33
2019-02-23T01:38:48.534Z,98.37
2019-02-23T01:41:18.494Z,98.93
2019-02-23T01:43:48.458Z,93.80
2019-02-23T01:46:18.434Z,96.57
2019-02-23T01:48:48.458Z,94.50
2019-02-23T01:51:18.846Z,92.77
2019-02-23T01:53:48.727Z,90.23
2019-02-23T01:56:18.710Z,91.53
2019-02-23T01:58:48.737Z,91.80
2019-02-23T02:01:18.681Z,89.97
2019-02-23T02:03:48.650Z,89.30
2019-02-23T02:06:18.634Z,89.00
2019-02-23T02:08:48.757Z,86.30
2019-02-23T02:11:22.513Z,86.57
2019-02-23T02:13:52.466Z,84.23
2019-02-23T02:16:22.509Z,82.50
2019-02-23T02:18:52.473Z,81.17
2019-02-23T02:21:22.413Z,81.17
2019-02-23T02:23:52.367Z,80.63
2019-02-23T02:26:22.255Z,80.47
2019-02-23T02:28:52.237Z,78.93
2019-02-23T02:31:22.210Z,77.17
2019-02-23T02:34:08.945Z,78.00
2019-02-23T02:36:38.986Z,76.87
2019-02-23T02:39:17.950Z,76.00
2019-02-23T02:41:47.923Z,73.13
2019-02-23T02:44:17.883Z,72.60
2019-02-23T02:46:47.790Z,72.00
2019-02-23T02:49:17.743Z,70.63
2019-02-23T02:51:47.722Z,70.70
2019-02-23T02:54:17.760Z,69.70
2019-02-23T02:56:47.767Z,67.63
2019-02-23T02:59:17.714Z,68.37
2019-02-23T03:01:47.703Z,66.10
2019-02-23T03:04:17.670Z,66.47
2019-02-23T03:06:47.617Z,65.47
2019-02-23T03:09:18.593Z,65.03
2019-02-23T03:11:48.591Z,64.63
2019-02-23T03:14:18.512Z,61.73
2019-02-23T03:16:49.458Z,62.80
2019-02-23T03:19:19.434Z,63.50
2019-02-23T03:21:49.406Z,61.43
2019-02-23T03:24:19.277Z,61.03
2019-02-23T03:26:49.270Z,60.93
2019-02-23T03:29:19.250Z,59.57
2019-02-23T03:31:50.384Z,59.60
2019-02-23T03:34:20.396Z,57.80
2019-02-23T03:36:50.495Z,57.40
2019-02-23T03:39:20.453Z,56.47
2019-02-23T03:41:50.387Z,55.73
2019-02-23T03:44:20.366Z,55.20
2019-02-23T03:46:52.896Z,54.93
2019-02-23T03:49:22.945Z,55.40
2019-02-23T03:51:53.045Z,53.93
2019-02-23T03:54:23.004Z,52.87
2019-02-23T03:56:53.006Z,51.80
2019-02-23T03:59:23.003Z,52.37
2019-02-23T04:01:53.103Z,52.37
2019-02-23T04:04:23.003Z,51.93
2019-02-23T04:06:53.076Z,51.37
2019-02-23T04:09:23.026Z,50.20
2019-02-23T04:11:53.082Z,49.10
2019-02-23T04:14:23.055Z,48.57
2019-02-23T04:16:52.974Z,48.70
2019-02-23T04:19:22.927Z,47.90
2019-02-23T04:21:52.810Z,47.00
2019-02-23T04:24:22.765Z,46.67
2019-02-23T04:26:52.775Z,46.63
2019-02-23T04:29:22.779Z,46.97
2019-02-23T04:31:52.684Z,45.07
2019-02-23T04:34:22.721Z,45.47
2019-02-23T04:36:52.729Z,44.87
2019-02-23T04:39:22.690Z,44.27
2019-02-23T04:41:52.574Z,44.87
2019-02-23T04:44:22.609Z,43.37
2019-02-23T04:46:52.672Z,44.67
2019-02-23T04:49:25.878Z,43.20
2019-02-23T04:51:55.285Z,42.63
2019-02-23T04:54:25.183Z,41.80
2019-02-23T04:56:55.221Z,41.13
2019-02-23T04:59:25.249Z,43.07
2019-02-23T05:01:55.225Z,40.87
2019-02-23T05:04:25.234Z,41.10
2019-02-23T05:06:55.245Z,40.50
2019-02-23T05:09:25.134Z,39.80
2019-02-23T05:11:55.350Z,39.57
2019-02-23T05:14:25.358Z,39.73
2019-02-23T05:16:55.294Z,38.30
2019-02-23T05:19:25.286Z,38.20
2019-02-23T05:21:55.330Z,38.03
2019-02-23T05:24:25.289Z,37.97
2019-02-23T05:26:55.304Z,37.50
2019-02-23T05:29:25.305Z,37.03
2019-02-23T05:31:55.227Z,38.63
2019-02-23T05:34:25.273Z,36.90
2019-02-23T05:36:55.258Z,36.00
2019-02-23T05:39:25.274Z,35.83
2019-02-23T05:41:55.297Z,35.87
2019-02-23T05:44:25.393Z,35.43
2019-02-23T05:46:55.390Z,34.73
2019-02-23T05:49:25.267Z,34.60
2019-02-23T05:51:55.214Z,34.20
2019-02-23T05:54:25.108Z,35.03
2019-02-23T05:56:55.120Z,33.97
2019-02-23T05:59:25.160Z,34.87
2019-02-23T06:01:55.213Z,34.13
2019-02-23T06:04:25.220Z,33.17
2019-02-23T06:06:55.217Z,33.57
2019-02-23T06:09:25.256Z,33.20
2019-02-23T06:11:55.218Z,32.57
2019-02-23T06:14:25.118Z,33.13
2019-02-23T06:16:55.065Z,32.17
2019-02-23T06:19:25.012Z,32.33
2019-02-23T06:21:54.987Z,32.33
2019-02-23T06:24:25.032Z,30.77
2019-02-23T06:26:55.062Z,31.03
2019-02-23T06:29:25.163Z,31.67
2019-02-23T06:31:55.118Z,32.17
2019-02-23T06:34:25.068Z,30.60
2019-02-23T06:36:55.134Z,30.93
2019-02-23T06:39:25.035Z,30.87
2019-02-23T06:41:55.142Z,30.37
2019-02-23T06:44:25.175Z,30.33
2019-02-23T06:46:55.146Z,30.10
2019-02-23T06:49:25.161Z,29.67
2019-02-23T06:52:04.050Z,30.77
2019-02-23T06:54:26.770Z,29.43
2019-02-23T06:56:56.759Z,29.33
2019-02-23T06:59:26.747Z,29.03
2019-02-23T07:01:56.824Z,29.37
2019-02-23T07:04:26.803Z,28.30
2019-02-23T07:06:56.679Z,28.03
2019-02-23T07:09:26.568Z,28.53
2019-02-23T07:11:56.522Z,28.47
2019-02-23T07:14:26.390Z,27.27
2019-02-23T07:16:56.338Z,27.70
2019-02-23T07:19:26.242Z,29.87
2019-02-23T07:21:56.186Z,31.13
2019-02-23T07:24:26.146Z,121.87
2019-02-23T07:26:56.133Z,159.60
2019-02-23T07:29:26.045Z,130.33
2019-02-23T07:31:55.970Z,118.40
2019-02-23T07:34:26.998Z,113.93
2019-02-23T07:36:57.003Z,102.20
2019-02-23T07:39:26.918Z,104.60
2019-02-23T07:41:56.849Z,105.77
2019-02-23T07:44:26.762Z,105.47
2019-02-23T07:46:56.814Z,103.93
2019-02-23T07:49:26.783Z,102.03
2019-02-23T07:51:56.787Z,107.40
2019-02-23T07:54:26.882Z,110.47
2019-02-23T07:56:56.960Z,115.93
2019-02-23T07:59:26.990Z,115.20
2019-02-23T08:01:57.004Z,119.83
2019-02-23T08:04:27.007Z,125.80
2019-02-23T08:06:56.925Z,123.00
2019-02-23T08:09:26.899Z,122.40
2019-02-23T08:11:56.956Z,124.03
2019-02-23T08:14:26.886Z,129.60
2019-02-23T08:16:56.918Z,133.13
2019-02-23T08:19:26.893Z,129.10
2019-02-23T08:21:56.845Z,128.60
2019-02-23T08:24:26.802Z,131.70
2019-02-23T08:26:56.741Z,128.70
2019-02-23T08:29:26.682Z,138.43
2019-02-23T08:31:56.565Z,143.97
2019-02-23T08:34:26.433Z,152.53
2019-02-23T08:36:56.379Z,200.27
2019-02-23T08:39:27.333Z,208.20
2019-02-23T08:41:57.219Z,217.40
2019-02-23T08:44:27.131Z,225.37
2019-02-23T08:46:58.300Z,234.27
2019-02-23T08:49:28.241Z,246.93
2019-02-23T08:51:58.110Z,250.33
2019-02-23T08:54:28.014Z,272.83
2019-02-23T08:56:57.966Z,307.17
2019-02-23T08:59:27.946Z,336.93
2019-02-23T09:01:57.897Z,329.53
2019-02-23T09:04:27.788Z,333.77
2019-02-23T09:06:57.687Z,319.13
2019-02-23T09:09:27.598Z,328.27
2019-02-23T09:11:57.494Z,403.20
2019-02-23T09:14:27.455Z,403.13
2019-02-23T09:16:57.417Z,379.33
2019-02-23T09:19:27.401Z,368.87
2019-02-23T09:21:57.358Z,356.13
2019-02-23T09:24:27.358Z,355.03
2019-02-23T09:26:58.282Z,337.10
2019-02-23T09:29:28.274Z,335.23
2019-02-23T09:31:59.422Z,330.83
2019-02-23T09:34:29.706Z,328.73
2019-02-23T09:36:59.994Z,327.97
2019-02-23T09:39:29.990Z,325.80
2019-02-23T09:42:07.427Z,318.57
2019-02-23T09:44:32.462Z,314.10
2019-02-23T09:47:02.482Z,306.17
2019-02-23T09:49:32.362Z,303.47
2019-02-23T09:52:02.326Z,305.57
2019-02-23T09:54:32.207Z,298.90
2019-02-23T09:57:02.190Z,292.47
2019-02-23T09:59:32.444Z,282.57
2019-02-23T10:02:02.734Z,278.80
2019-02-23T10:04:33.110Z,273.87
2019-02-23T10:07:03.308Z,272.03
2019-02-23T10:09:33.361Z,266.00
2019-02-23T10:12:03.332Z,266.60
2019-02-23T10:14:33.399Z,259.63
2019-02-23T10:17:04.189Z,253.43
2019-02-23T10:19:34.135Z,252.70
2019-02-23T10:22:04.119Z,245.73
